YYZ weather

Lester B. Pearson International Airport
Toronto, Ontario, Canada

Public forecast

Using degrees Celsius for public forecast. Weather courtesy of forecast.io.

METAR (pilot weather report)

Retrieved 2019/02/18 16:00 UTC (37 minutes ago):

CYYZ 181600Z CCA 35011KT 15SM DRSN FEW014 SCT019 BKN050 M08/M11 A3009 RMK CU1SC3SC3 /S02/ SLP203

TAF (pilot weather forecast)

Retrieved 2019/02/18 15:48 UTC (49 minutes ago):

TAF CYYZ 181438Z 1815/1918 01012G22KT 11/2SM -SN OVC010 TEMPO 1815/1816 5SM -SN OVC030 FM181530 36012G22KT P6SM -SN SCT020 OVC060 TEMPO 1815/1816 3SM -SN OVC020 FM181600 35015KT P6SM FEW020 BKN090 TEMPO 1816/1818 P6SM -SN BKN020 OVC090 FM182000 34015KT P6SM FEW110 BECMG 1900/1902 32010KT SKC FM190400 30005KT P6SM SKC FM191100 VRB03KT P6SM SCT015 BECMG 1914/1916 26010KT FEW030 RMK NXT FCST BY 181800Z